Time;durP1;ratioP1;P1;durP2;ratioP2;P2;SDS_P1;SDS_P2;PMS_P1;PMS_P2;Temp;Humidity;BMP_temperature;BMP_pressure;BME280_temperature;BME280_humidity;BME280_pressure;Samples;Min_cycle;Max_cycle;Signal;HPM_P1;HPM_P2
2024/03/21 00:00:28;;;;;;;4.38;1.02;;;;;;;;;;5079135;28;20024;-47
2024/03/21 00:02:56;;;;;;;7.97;1.20;;;;;;;;;;5099131;28;20469;-45
2024/03/21 00:05:23;;;;;;;3.53;0.90;;;;;;;;;;5078434;28;20032;-45
2024/03/21 00:07:51;;;;;;;5.32;1.00;;;;;;;;;;5082615;28;20115;-46
2024/03/21 00:10:21;;;;;;;5.78;1.15;;;;;;;;;;5076403;28;20066;-44
2024/03/21 00:12:51;;;;;;;3.22;1.00;;;;;;;;;;5079557;28;20046;-45
2024/03/21 00:15:18;;;;;;;2.90;1.00;;;;;;;;;;5078881;28;20425;-45
2024/03/21 00:17:46;;;;;;;4.72;0.95;;;;;;;;;;5086167;28;20397;-45
2024/03/21 00:20:14;;;;;;;3.38;0.82;;;;;;;;;;5103329;28;20031;-45
2024/03/21 00:22:43;;;;;;;7.07;1.15;;;;;;;;;;5083032;28;20074;-43
2024/03/21 00:25:10;;;;;;;8.02;1.35;;;;;;;;;;5091710;28;20036;-47
2024/03/21 00:27:39;;;;;;;5.65;0.80;;;;;;;;;;5085385;28;20036;-47
2024/03/21 00:30:06;;;;;;;3.75;0.90;;;;;;;;;;5107348;28;20040;-47
2024/03/21 00:32:34;;;;;;;4.15;0.90;;;;;;;;;;5086723;28;20031;-47
2024/03/21 00:35:01;;;;;;;6.80;1.20;;;;;;;;;;5086201;28;20020;-47
2024/03/21 00:37:28;;;;;;;5.07;1.10;;;;;;;;;;5092766;28;20023;-45
2024/03/21 00:39:55;;;;;;;8.13;1.40;;;;;;;;;;5087002;28;20089;-48
2024/03/21 00:42:23;;;;;;;7.75;1.50;;;;;;;;;;5100465;28;20119;-45
2024/03/21 00:44:50;;;;;;;7.50;1.30;;;;;;;;;;5093044;28;20040;-51
2024/03/21 00:47:17;;;;;;;10.48;1.75;;;;;;;;;;5092960;28;20062;-47
2024/03/21 00:49:44;;;;;;;5.35;1.50;;;;;;;;;;5092984;28;20043;-46
2024/03/21 00:52:11;;;;;;;7.68;1.17;;;;;;;;;;5092745;28;20028;-45
2024/03/21 00:54:38;;;;;;;7.40;1.35;;;;;;;;;;5092789;28;20051;-48
2024/03/21 00:57:07;;;;;;;9.60;1.65;;;;;;;;;;5091849;28;20028;-45
2024/03/21 00:59:34;;;;;;;4.35;0.95;;;;;;;;;;5092491;28;20036;-47
2024/03/21 01:02:01;;;;;;;8.77;1.23;;;;;;;;;;5085406;28;20104;-47
2024/03/21 01:04:28;;;;;;;9.98;1.33;;;;;;;;;;5091262;28;20386;-48
2024/03/21 01:06:55;;;;;;;15.57;1.70;;;;;;;;;;5092751;28;20614;-48
2024/03/21 01:09:23;;;;;;;12.27;1.48;;;;;;;;;;5072888;28;20525;-48
2024/03/21 01:11:50;;;;;;;11.00;1.30;;;;;;;;;;5082254;28;20035;-45
2024/03/21 01:14:17;;;;;;;12.50;1.52;;;;;;;;;;5092696;28;20050;-48
2024/03/21 01:16:44;;;;;;;12.07;1.20;;;;;;;;;;5092399;28;20036;-46
2024/03/21 01:19:11;;;;;;;16.20;1.95;;;;;;;;;;5092408;28;20016;-45
2024/03/21 01:21:38;;;;;;;10.18;1.27;;;;;;;;;;5092473;28;20173;-47
2024/03/21 01:24:05;;;;;;;14.35;1.40;;;;;;;;;;5092057;28;20065;-48
2024/03/21 01:26:32;;;;;;;6.47;1.30;;;;;;;;;;5080733;28;20516;-46
2024/03/21 01:28:59;;;;;;;11.30;1.20;;;;;;;;;;5090683;28;20043;-48
2024/03/21 01:31:26;;;;;;;8.52;1.27;;;;;;;;;;5091483;28;20031;-47
2024/03/21 01:33:53;;;;;;;13.07;1.42;;;;;;;;;;5104774;27;20040;-46
2024/03/21 01:36:20;;;;;;;13.85;1.65;;;;;;;;;;5092390;28;20103;-45
2024/03/21 01:38:47;;;;;;;7.13;1.30;;;;;;;;;;5093234;28;20506;-46
2024/03/21 01:41:14;;;;;;;8.93;1.67;;;;;;;;;;5090833;28;20028;-47
2024/03/21 01:43:41;;;;;;;8.80;1.25;;;;;;;;;;5087390;28;20036;-46
2024/03/21 01:46:18;;;;;;;10.10;1.30;;;;;;;;;;5090268;28;20127;-49
2024/03/21 01:48:49;;;;;;;9.68;1.70;;;;;;;;;;5088656;28;20128;-47
2024/03/21 01:51:17;;;;;;;8.38;1.42;;;;;;;;;;5088840;28;20077;-46
2024/03/21 01:53:47;;;;;;;11.30;1.35;;;;;;;;;;5090565;28;20099;-46
2024/03/21 01:56:15;;;;;;;10.82;1.50;;;;;;;;;;5089272;28;20150;-48
2024/03/21 01:58:42;;;;;;;7.25;1.33;;;;;;;;;;5088153;28;20020;-47
2024/03/21 02:01:26;;;;;;;5.90;1.70;;;;;;;;;;5087487;28;20393;-46
2024/03/21 02:03:53;;;;;;;8.43;1.60;;;;;;;;;;5090435;28;20035;-47
2024/03/21 02:06:21;;;;;;;8.88;1.55;;;;;;;;;;5090492;28;20043;-45
2024/03/21 02:08:48;;;;;;;6.03;1.40;;;;;;;;;;5090779;28;20035;-48
2024/03/21 02:11:15;;;;;;;6.82;1.20;;;;;;;;;;5091163;28;20031;-46
2024/03/21 02:13:42;;;;;;;9.93;1.48;;;;;;;;;;5091287;28;20028;-46
2024/03/21 02:16:10;;;;;;;8.45;1.20;;;;;;;;;;5091171;28;20030;-45
2024/03/21 02:18:37;;;;;;;5.32;1.48;;;;;;;;;;5091354;28;20034;-44
2024/03/21 02:21:06;;;;;;;7.38;1.65;;;;;;;;;;5091004;28;20020;-45
2024/03/21 02:23:34;;;;;;;3.85;1.10;;;;;;;;;;5090370;28;20046;-44
2024/03/21 02:26:02;;;;;;;4.63;1.30;;;;;;;;;;5091431;28;20036;-45
2024/03/21 02:28:29;;;;;;;5.63;1.23;;;;;;;;;;5091095;28;20093;-46
2024/03/21 02:30:56;;;;;;;3.75;1.00;;;;;;;;;;5091755;28;20024;-45
2024/03/21 02:33:23;;;;;;;6.18;1.20;;;;;;;;;;5091640;28;20020;-47
2024/03/21 02:35:50;;;;;;;7.80;1.23;;;;;;;;;;5091497;28;20040;-44
2024/03/21 02:38:17;;;;;;;4.85;1.13;;;;;;;;;;5091678;28;20044;-45
2024/03/21 02:40:44;;;;;;;3.83;1.10;;;;;;;;;;5091619;28;20085;-44
2024/03/21 02:43:11;;;;;;;5.03;0.80;;;;;;;;;;5091690;28;20059;-44
2024/03/21 02:45:38;;;;;;;4.60;1.48;;;;;;;;;;5091497;28;20035;-44
2024/03/21 02:48:05;;;;;;;4.57;1.10;;;;;;;;;;5091281;28;20046;-46
2024/03/21 02:50:33;;;;;;;3.70;0.90;;;;;;;;;;5091517;28;20032;-47
2024/03/21 02:53:00;;;;;;;2.50;0.90;;;;;;;;;;5091584;28;20032;-45
2024/03/21 02:55:27;;;;;;;2.55;0.80;;;;;;;;;;5095360;28;20024;-45
2024/03/21 02:57:54;;;;;;;4.00;1.13;;;;;;;;;;5095733;28;20024;-46
2024/03/21 03:00:21;;;;;;;3.30;1.17;;;;;;;;;;5095751;28;20058;-46
2024/03/21 03:02:51;;;;;;;4.30;0.90;;;;;;;;;;5077318;28;20032;-45
2024/03/21 03:05:20;;;;;;;3.47;0.82;;;;;;;;;;5095526;28;20035;-45
2024/03/21 03:07:47;;;;;;;3.88;0.98;;;;;;;;;;5095556;28;20035;-46
2024/03/21 03:10:17;;;;;;;2.10;0.82;;;;;;;;;;5095552;28;20020;-45
2024/03/21 03:12:44;;;;;;;3.40;0.90;;;;;;;;;;5095505;28;20077;-46
2024/03/21 03:15:11;;;;;;;5.38;0.90;;;;;;;;;;5095350;28;20134;-45
2024/03/21 03:17:38;;;;;;;2.75;1.10;;;;;;;;;;5095458;28;20055;-47
2024/03/21 03:20:05;;;;;;;3.85;0.90;;;;;;;;;;5095318;28;20028;-48
2024/03/21 03:22:32;;;;;;;6.22;0.93;;;;;;;;;;5095362;28;20109;-45
2024/03/21 03:24:58;;;;;;;2.70;0.70;;;;;;;;;;5095176;28;20032;-46
2024/03/21 03:27:25;;;;;;;2.97;0.70;;;;;;;;;;5095130;28;20043;-47
2024/03/21 03:29:52;;;;;;;3.13;0.82;;;;;;;;;;5095164;28;20105;-46
2024/03/21 03:32:22;;;;;;;3.40;0.70;;;;;;;;;;5095945;28;20649;-46
2024/03/21 03:37:34;;;;;;;2.35;0.80;;;;;;;;;;5105639;28;20116;-46
2024/03/21 03:40:01;;;;;;;2.40;0.85;;;;;;;;;;5094975;28;20025;-47
2024/03/21 03:42:28;;;;;;;2.75;0.82;;;;;;;;;;5094862;28;20041;-45
2024/03/21 03:44:55;;;;;;;5.03;0.75;;;;;;;;;;5094734;28;20088;-44
2024/03/21 03:47:22;;;;;;;2.13;0.70;;;;;;;;;;5099846;28;20140;-45
2024/03/21 03:49:49;;;;;;;2.55;0.85;;;;;;;;;;5115129;28;20039;-44
2024/03/21 03:52:16;;;;;;;63.58;3.45;;;;;;;;;;5115113;28;20020;-45
2024/03/21 03:54:43;;;;;;;3.95;0.80;;;;;;;;;;5114919;28;20023;-44
2024/03/21 03:57:10;;;;;;;1.85;0.60;;;;;;;;;;5115094;28;20024;-45
2024/03/21 03:59:37;;;;;;;2.10;0.75;;;;;;;;;;5114981;28;20176;-44
2024/03/21 04:02:04;;;;;;;1.40;0.63;;;;;;;;;;5114927;28;20073;-44
2024/03/21 04:04:31;;;;;;;3.72;0.82;;;;;;;;;;5114787;28;20035;-45
2024/03/21 04:06:59;;;;;;;1.83;0.60;;;;;;;;;;5114027;28;20515;-44
2024/03/21 04:09:25;;;;;;;3.40;0.88;;;;;;;;;;5100328;28;20687;-44
2024/03/21 04:11:52;;;;;;;3.95;0.65;;;;;;;;;;5094363;28;20037;-45
2024/03/21 04:14:19;;;;;;;1.60;0.57;;;;;;;;;;5094346;28;20039;-44
2024/03/21 04:16:46;;;;;;;2.25;0.70;;;;;;;;;;5094048;28;20095;-44
2024/03/21 04:19:13;;;;;;;1.55;0.60;;;;;;;;;;5094245;28;20052;-45
2024/03/21 04:21:40;;;;;;;2.35;0.68;;;;;;;;;;5094220;28;20099;-45
2024/03/21 04:24:07;;;;;;;0.70;0.30;;;;;;;;;;5097251;28;20035;-45
2024/03/21 04:26:34;;;;;;;2.25;0.60;;;;;;;;;;5114400;28;20759;-45
2024/03/21 04:29:01;;;;;;;2.05;0.68;;;;;;;;;;5114265;28;20057;-45
2024/03/21 04:31:28;;;;;;;1.33;0.50;;;;;;;;;;5114432;28;20058;-45
2024/03/21 04:33:55;;;;;;;1.45;0.80;;;;;;;;;;5114382;28;20032;-45
2024/03/21 04:36:22;;;;;;;1.30;0.70;;;;;;;;;;5114203;28;20027;-45
2024/03/21 04:38:49;;;;;;;1.25;0.70;;;;;;;;;;5114230;28;20055;-45
2024/03/21 04:41:16;;;;;;;3.58;0.65;;;;;;;;;;5114212;28;20039;-46
2024/03/21 04:43:43;;;;;;;1.42;0.65;;;;;;;;;;5114122;28;20481;-46
2024/03/21 04:46:10;;;;;;;2.58;0.80;;;;;;;;;;5113957;28;20035;-47
2024/03/21 04:48:37;;;;;;;2.65;0.70;;;;;;;;;;5113800;28;20130;-45
2024/03/21 04:51:04;;;;;;;2.47;0.52;;;;;;;;;;5114065;28;20024;-47
2024/03/21 04:53:31;;;;;;;1.90;0.80;;;;;;;;;;5113985;28;20047;-45
2024/03/21 04:55:58;;;;;;;2.60;0.60;;;;;;;;;;5113703;28;20385;-45
2024/03/21 04:58:25;;;;;;;2.92;0.60;;;;;;;;;;5113890;28;20038;-47
2024/03/21 05:00:52;;;;;;;0.82;0.40;;;;;;;;;;5113775;28;20094;-46
2024/03/21 05:03:19;;;;;;;0.82;0.43;;;;;;;;;;5113797;28;20047;-45
2024/03/21 05:05:46;;;;;;;1.73;0.50;;;;;;;;;;5113552;28;20039;-46
2024/03/21 05:08:13;;;;;;;0.90;0.50;;;;;;;;;;5113512;28;20119;-46
2024/03/21 05:10:40;;;;;;;0.88;0.50;;;;;;;;;;5113626;28;20051;-45
2024/03/21 05:13:07;;;;;;;4.30;0.50;;;;;;;;;;5113558;28;20028;-46
2024/03/21 05:15:34;;;;;;;1.70;0.65;;;;;;;;;;5113364;28;20059;-46
2024/03/21 05:18:01;;;;;;;2.47;0.65;;;;;;;;;;5112472;28;20083;-46
2024/03/21 05:20:28;;;;;;;1.98;0.50;;;;;;;;;;5113477;28;20023;-45
2024/03/21 05:22:55;;;;;;;1.20;0.50;;;;;;;;;;5113331;28;20028;-46
2024/03/21 05:25:22;;;;;;;1.30;0.57;;;;;;;;;;5113229;28;20055;-45
2024/03/21 05:27:49;;;;;;;4.50;0.73;;;;;;;;;;5113194;28;20485;-46
2024/03/21 05:30:16;;;;;;;1.95;0.57;;;;;;;;;;5113257;28;20023;-46
2024/03/21 05:32:43;;;;;;;2.03;0.40;;;;;;;;;;5113213;28;20492;-45
2024/03/21 05:35:10;;;;;;;1.10;0.40;;;;;;;;;;5113029;28;20024;-45
2024/03/21 05:37:37;;;;;;;1.33;0.47;;;;;;;;;;5113101;28;20042;-45
2024/03/21 05:40:04;;;;;;;1.98;0.60;;;;;;;;;;5112959;28;20084;-45
2024/03/21 05:42:31;;;;;;;4.38;0.52;;;;;;;;;;5113009;28;20111;-46
2024/03/21 05:44:58;;;;;;;3.20;0.60;;;;;;;;;;5112842;28;20396;-45
2024/03/21 05:47:25;;;;;;;0.85;0.55;;;;;;;;;;5112544;28;20131;-46
2024/03/21 05:49:52;;;;;;;3.20;0.70;;;;;;;;;;5112901;28;20070;-47
2024/03/21 05:52:19;;;;;;;1.02;0.50;;;;;;;;;;5112823;28;20028;-46
2024/03/21 05:54:50;;;;;;;1.35;0.60;;;;;;;;;;5112714;28;20077;-46
2024/03/21 05:57:17;;;;;;;1.52;0.50;;;;;;;;;;5112678;28;20028;-46
2024/03/21 05:59:44;;;;;;;1.70;0.70;;;;;;;;;;5112627;28;20073;-46
2024/03/21 06:02:11;;;;;;;1.17;0.47;;;;;;;;;;5079579;28;20096;-46
2024/03/21 06:04:38;;;;;;;2.22;0.50;;;;;;;;;;5091982;28;20035;-46
2024/03/21 06:07:05;;;;;;;3.42;0.50;;;;;;;;;;5092167;28;20044;-46
2024/03/21 06:09:32;;;;;;;1.50;0.50;;;;;;;;;;5092149;28;20085;-46
2024/03/21 06:11:59;;;;;;;1.63;0.50;;;;;;;;;;5093037;28;20062;-44
2024/03/21 06:14:26;;;;;;;1.15;0.55;;;;;;;;;;5091789;28;20058;-46
2024/03/21 06:16:53;;;;;;;0.93;0.40;;;;;;;;;;5102185;28;20111;-46
2024/03/21 06:19:20;;;;;;;3.08;0.60;;;;;;;;;;5097227;28;20059;-45
2024/03/21 06:21:47;;;;;;;1.05;0.43;;;;;;;;;;5095469;28;20390;-45
2024/03/21 06:24:14;;;;;;;0.73;0.40;;;;;;;;;;5112284;28;20036;-46
2024/03/21 06:26:41;;;;;;;2.95;0.60;;;;;;;;;;5112114;28;20036;-46
2024/03/21 06:29:08;;;;;;;1.02;0.40;;;;;;;;;;5111828;28;20031;-45
2024/03/21 06:31:35;;;;;;;0.60;0.40;;;;;;;;;;5103617;28;20592;-46
2024/03/21 06:34:02;;;;;;;1.48;0.50;;;;;;;;;;5091780;28;20024;-46
2024/03/21 06:36:29;;;;;;;1.70;0.47;;;;;;;;;;5091689;28;20028;-46
2024/03/21 06:38:56;;;;;;;1.08;0.50;;;;;;;;;;5091730;28;20028;-45
2024/03/21 06:41:23;;;;;;;1.75;0.30;;;;;;;;;;5091784;28;20035;-46
2024/03/21 06:43:50;;;;;;;1.00;0.60;;;;;;;;;;5091604;28;20161;-45
2024/03/21 06:46:17;;;;;;;0.70;0.40;;;;;;;;;;5100179;28;20028;-44
2024/03/21 06:48:44;;;;;;;1.80;0.50;;;;;;;;;;5111855;28;20044;-46
2024/03/21 06:51:13;;;;;;;0.82;0.40;;;;;;;;;;5111693;28;20079;-44
2024/03/21 06:53:40;;;;;;;1.02;0.40;;;;;;;;;;5111935;28;20550;-45
2024/03/21 06:56:07;;;;;;;1.45;0.50;;;;;;;;;;5111837;28;20107;-45
2024/03/21 06:58:35;;;;;;;1.02;0.30;;;;;;;;;;5111965;28;20038;-45
2024/03/21 07:01:02;;;;;;;0.98;0.50;;;;;;;;;;5111970;28;20059;-45
2024/03/21 07:03:29;;;;;;;1.30;0.50;;;;;;;;;;5111901;28;20385;-44
2024/03/21 07:05:56;;;;;;;1.15;0.38;;;;;;;;;;5111740;28;20024;-45
2024/03/21 07:08:23;;;;;;;1.30;0.60;;;;;;;;;;5111773;28;20111;-45
2024/03/21 07:10:50;;;;;;;1.10;0.40;;;;;;;;;;5111823;28;20036;-45
2024/03/21 07:13:17;;;;;;;1.50;0.40;;;;;;;;;;5111837;28;20035;-44
2024/03/21 07:15:44;;;;;;;1.58;0.40;;;;;;;;;;5106219;28;20032;-46
2024/03/21 07:21:21;;;;;;;2.08;0.50;;;;;;;;;;5093313;28;20035;-44
2024/03/21 07:26:58;;;;;;;0.82;0.30;;;;;;;;;;5092630;28;20500;-45
2024/03/21 07:29:26;;;;;;;1.45;0.63;;;;;;;;;;5071836;28;20041;-44
2024/03/21 07:31:53;;;;;;;1.25;0.35;;;;;;;;;;5071096;28;20036;-45
2024/03/21 07:34:20;;;;;;;0.60;0.30;;;;;;;;;;5070961;28;20032;-46
2024/03/21 07:36:47;;;;;;;0.57;0.30;;;;;;;;;;5070980;28;20028;-46
2024/03/21 07:39:14;;;;;;;1.35;0.40;;;;;;;;;;5070967;28;20086;-45
2024/03/21 07:41:41;;;;;;;0.70;0.30;;;;;;;;;;5073308;28;20563;-46
2024/03/21 07:44:09;;;;;;;0.75;0.40;;;;;;;;;;5074640;28;20032;-45
2024/03/21 07:46:36;;;;;;;1.80;0.40;;;;;;;;;;5074641;28;20056;-44
2024/03/21 07:49:03;;;;;;;1.10;0.40;;;;;;;;;;5074253;28;20094;-44
2024/03/21 07:51:30;;;;;;;1.52;0.45;;;;;;;;;;5074567;28;20024;-44
2024/03/21 07:53:57;;;;;;;1.20;0.40;;;;;;;;;;5074473;28;20035;-45
2024/03/21 07:56:27;;;;;;;1.52;0.28;;;;;;;;;;5074415;28;20039;-45
2024/03/21 07:58:54;;;;;;;0.65;0.30;;;;;;;;;;5074385;28;20115;-45
2024/03/21 08:01:23;;;;;;;0.35;0.30;;;;;;;;;;5074312;28;20031;-45
2024/03/21 08:03:50;;;;;;;1.48;0.38;;;;;;;;;;5074351;28;20081;-45
2024/03/21 08:06:18;;;;;;;2.33;0.45;;;;;;;;;;5074183;28;20031;-44
2024/03/21 08:08:45;;;;;;;0.20;0.20;;;;;;;;;;5074147;28;20033;-44
2024/03/21 08:11:12;;;;;;;0.60;0.30;;;;;;;;;;5074216;28;20021;-44
2024/03/21 08:13:43;;;;;;;0.55;0.38;;;;;;;;;;5073978;28;20101;-45
2024/03/21 08:16:10;;;;;;;2.20;0.40;;;;;;;;;;5073826;28;20037;-46
2024/03/21 08:18:37;;;;;;;1.52;0.30;;;;;;;;;;5074128;28;20086;-45
2024/03/21 08:21:04;;;;;;;1.17;0.40;;;;;;;;;;5073951;28;20064;-45
2024/03/21 08:23:31;;;;;;;1.00;0.32;;;;;;;;;;5073968;28;20025;-45
2024/03/21 08:26:05;;;;;;;1.45;0.40;;;;;;;;;;5073757;28;20137;-45
2024/03/21 08:28:32;;;;;;;1.13;0.30;;;;;;;;;;5073769;28;20067;-44
2024/03/21 08:30:59;;;;;;;2.53;0.50;;;;;;;;;;5073812;28;20032;-44
2024/03/21 08:33:26;;;;;;;1.02;0.40;;;;;;;;;;5073724;28;20028;-44
2024/03/21 08:35:53;;;;;;;3.47;0.50;;;;;;;;;;5073565;28;20081;-44
2024/03/21 08:38:20;;;;;;;1.42;0.50;;;;;;;;;;5055498;28;20115;-45
2024/03/21 08:40:53;;;;;;;0.50;0.35;;;;;;;;;;5073638;28;20479;-44
2024/03/21 08:43:20;;;;;;;1.02;0.50;;;;;;;;;;5073614;28;20025;-45
2024/03/21 08:45:51;;;;;;;0.80;0.50;;;;;;;;;;5073500;28;20367;-44
2024/03/21 08:48:21;;;;;;;1.08;0.40;;;;;;;;;;5073248;28;20075;-44
2024/03/21 08:50:48;;;;;;;0.80;0.47;;;;;;;;;;5073365;28;20017;-44
2024/03/21 08:53:15;;;;;;;1.00;0.50;;;;;;;;;;5073027;28;20116;-44
2024/03/21 08:55:42;;;;;;;1.60;0.40;;;;;;;;;;5073055;28;20035;-45
2024/03/21 08:58:09;;;;;;;0.93;0.40;;;;;;;;;;5072911;28;20085;-45
2024/03/21 09:00:40;;;;;;;2.60;0.50;;;;;;;;;;5058630;28;20032;-46
2024/03/21 09:03:08;;;;;;;1.30;0.40;;;;;;;;;;5092119;28;20036;-45
2024/03/21 09:05:35;;;;;;;1.38;0.52;;;;;;;;;;5092373;28;20070;-45
2024/03/21 09:08:03;;;;;;;1.33;0.40;;;;;;;;;;5090294;28;20478;-45
2024/03/21 09:10:30;;;;;;;1.05;0.38;;;;;;;;;;5089345;28;20591;-45
2024/03/21 09:12:57;;;;;;;1.42;0.30;;;;;;;;;;5091846;28;20483;-45
2024/03/21 09:15:24;;;;;;;1.52;0.40;;;;;;;;;;5083206;28;20047;-46
2024/03/21 09:17:51;;;;;;;1.50;0.43;;;;;;;;;;5079263;28;20394;-46
2024/03/21 09:20:18;;;;;;;1.27;0.40;;;;;;;;;;5101598;28;20591;-44
2024/03/21 09:22:46;;;;;;;0.68;0.30;;;;;;;;;;5109780;28;20496;-46
2024/03/21 09:25:13;;;;;;;1.48;0.50;;;;;;;;;;5113213;28;20031;-44
2024/03/21 09:27:40;;;;;;;0.80;0.30;;;;;;;;;;5113098;28;20036;-44
2024/03/21 09:30:07;;;;;;;1.23;0.47;;;;;;;;;;5093189;28;20473;-45
2024/03/21 09:32:34;;;;;;;3.50;0.77;;;;;;;;;;5089429;28;20112;-47
2024/03/21 09:35:01;;;;;;;1.20;0.60;;;;;;;;;;5090105;28;20058;-45
2024/03/21 09:37:28;;;;;;;2.65;0.73;;;;;;;;;;5094835;28;20020;-45
2024/03/21 09:39:55;;;;;;;1.88;0.80;;;;;;;;;;5076098;28;20028;-49
2024/03/21 09:42:22;;;;;;;3.38;1.00;;;;;;;;;;5078877;28;20036;-47
2024/03/21 09:44:51;;;;;;;8.90;0.77;;;;;;;;;;5087335;28;20035;-48
2024/03/21 09:47:23;;;;;;;4.93;0.90;;;;;;;;;;5092446;28;20040;-48
2024/03/21 09:49:50;;;;;;;1.98;0.70;;;;;;;;;;5092556;28;20118;-47
2024/03/21 09:52:17;;;;;;;7.35;0.82;;;;;;;;;;5092548;28;20028;-49
2024/03/21 09:54:44;;;;;;;5.53;0.80;;;;;;;;;;5092436;28;20057;-47
2024/03/21 09:57:15;;;;;;;3.40;0.80;;;;;;;;;;5092329;28;20504;-48
2024/03/21 09:59:42;;;;;;;3.83;1.20;;;;;;;;;;5092447;28;20474;-47
2024/03/21 10:02:13;;;;;;;3.65;0.93;;;;;;;;;;5092355;28;20039;-48
2024/03/21 10:04:43;;;;;;;3.58;0.80;;;;;;;;;;5091548;28;20103;-48
2024/03/21 10:07:20;;;;;;;3.58;0.77;;;;;;;;;;5092288;28;20103;-48
2024/03/21 10:09:56;;;;;;;5.13;1.00;;;;;;;;;;5092202;28;20044;-48
2024/03/21 10:12:24;;;;;;;3.17;1.00;;;;;;;;;;5092214;28;20046;-50
2024/03/21 10:14:55;;;;;;;4.95;0.90;;;;;;;;;;5092007;28;20040;-47
2024/03/21 10:17:25;;;;;;;1.90;0.95;;;;;;;;;;5091943;28;20081;-48
2024/03/21 10:19:53;;;;;;;1.88;0.80;;;;;;;;;;5092106;28;20537;-47
2024/03/21 10:22:21;;;;;;;4.50;0.88;;;;;;;;;;5092039;28;20020;-47
2024/03/21 10:24:55;;;;;;;3.10;0.80;;;;;;;;;;5091773;28;20032;-47
2024/03/21 10:27:22;;;;;;;3.58;1.20;;;;;;;;;;5091879;28;20029;-48
2024/03/21 10:29:53;;;;;;;8.85;1.20;;;;;;;;;;5092004;28;20074;-47
2024/03/21 10:32:21;;;;;;;4.63;0.90;;;;;;;;;;5091943;28;20028;-49
2024/03/21 10:34:52;;;;;;;4.95;1.13;;;;;;;;;;5091896;28;20095;-48
2024/03/21 10:37:20;;;;;;;3.15;1.10;;;;;;;;;;5091640;28;20024;-48
2024/03/21 10:39:47;;;;;;;5.88;0.95;;;;;;;;;;5091799;28;20107;-48
2024/03/21 10:42:17;;;;;;;2.05;0.80;;;;;;;;;;5091773;28;20052;-47
2024/03/21 10:44:45;;;;;;;2.90;1.10;;;;;;;;;;5091658;28;20027;-48
2024/03/21 10:47:15;;;;;;;3.13;1.10;;;;;;;;;;5091551;28;20052;-47
2024/03/21 10:49:42;;;;;;;2.17;0.90;;;;;;;;;;5091633;28;20039;-47
2024/03/21 10:52:14;;;;;;;5.32;1.00;;;;;;;;;;5091524;28;20363;-47
2024/03/21 10:54:41;;;;;;;;;;;;;;;;;;5091890;28;20032;-48
2024/03/21 10:57:15;;;;;;;3.38;0.98;;;;;;;;;;5091560;28;19914;-49
2024/03/21 10:59:43;;;;;;;3.40;0.82;;;;;;;;;;5091507;28;20125;-47
2024/03/21 11:02:16;;;;;;;4.22;1.20;;;;;;;;;;5091437;28;20086;-50
2024/03/21 11:05:02;;;;;;;3.05;1.02;;;;;;;;;;5091497;28;20101;-51
2024/03/21 11:07:31;;;;;;;2.88;0.82;;;;;;;;;;5091493;28;20063;-48
2024/03/21 11:09:59;;;;;;;3.53;0.90;;;;;;;;;;5091580;28;20067;-47
2024/03/21 11:12:26;;;;;;;2.78;1.08;;;;;;;;;;5091423;28;20043;-47
2024/03/21 11:14:53;;;;;;;3.78;1.08;;;;;;;;;;5092623;28;20081;-47
2024/03/21 11:17:20;;;;;;;4.38;1.00;;;;;;;;;;5095538;28;20032;-48
2024/03/21 11:19:50;;;;;;;4.55;1.02;;;;;;;;;;5095335;28;20032;-47
2024/03/21 11:22:18;;;;;;;3.35;1.00;;;;;;;;;;5095457;28;20055;-49
2024/03/21 11:24:45;;;;;;;3.05;1.20;;;;;;;;;;5095294;28;20723;-47
2024/03/21 11:27:19;;;;;;;4.30;1.02;;;;;;;;;;5095336;28;20023;-48
2024/03/21 11:29:46;;;;;;;5.97;0.93;;;;;;;;;;5095226;28;20111;-48
2024/03/21 11:32:20;;;;;;;5.63;1.15;;;;;;;;;;5094902;28;20059;-46
2024/03/21 11:34:47;;;;;;;2.92;0.93;;;;;;;;;;5095082;28;20082;-46
2024/03/21 11:37:15;;;;;;;4.50;1.20;;;;;;;;;;5095068;28;20048;-46
2024/03/21 11:39:42;;;;;;;5.47;1.27;;;;;;;;;;5094406;28;20028;-46
2024/03/21 11:42:20;;;;;;;2.67;1.00;;;;;;;;;;5094820;28;20031;-46
2024/03/21 11:44:50;;;;;;;2.30;0.80;;;;;;;;;;5094777;28;20028;-50
2024/03/21 11:47:17;;;;;;;4.65;1.10;;;;;;;;;;5094679;28;20461;-47
2024/03/21 11:49:54;;;;;;;6.70;1.20;;;;;;;;;;5094438;28;20036;-48
2024/03/21 11:52:21;;;;;;;3.78;0.95;;;;;;;;;;5074489;28;20032;-49
2024/03/21 11:54:48;;;;;;;4.32;1.25;;;;;;;;;;5074297;28;20055;-47
2024/03/21 11:57:16;;;;;;;3.20;1.00;;;;;;;;;;5074377;28;20020;-48
2024/03/21 11:59:49;;;;;;;2.63;1.00;;;;;;;;;;5074389;28;20029;-48
2024/03/21 12:02:17;;;;;;;8.68;1.20;;;;;;;;;;5087587;28;20036;-47
2024/03/21 12:04:45;;;;;;;3.08;1.02;;;;;;;;;;5094474;28;20071;-47
2024/03/21 12:07:13;;;;;;;4.25;1.10;;;;;;;;;;5092424;28;20043;-47
2024/03/21 12:09:40;;;;;;;3.78;1.00;;;;;;;;;;5089848;28;20032;-46
2024/03/21 12:12:09;;;;;;;5.70;0.98;;;;;;;;;;5093867;28;20028;-48
2024/03/21 12:14:37;;;;;;;3.40;0.93;;;;;;;;;;5093356;28;20024;-47
2024/03/21 12:17:06;;;;;;;3.28;0.93;;;;;;;;;;5093676;28;20715;-45
2024/03/21 12:19:33;;;;;;;6.72;1.00;;;;;;;;;;5093488;28;20047;-46
2024/03/21 12:22:00;;;;;;;2.17;1.10;;;;;;;;;;5094070;28;20028;-47
2024/03/21 12:24:27;;;;;;;2.85;1.13;;;;;;;;;;5093846;28;20457;-47
2024/03/21 12:26:54;;;;;;;4.43;1.15;;;;;;;;;;5093460;28;20477;-46
2024/03/21 12:29:21;;;;;;;6.43;1.02;;;;;;;;;;5093630;28;20047;-49
2024/03/21 12:31:48;;;;;;;2.55;1.10;;;;;;;;;;5093857;28;20031;-44
2024/03/21 12:34:15;;;;;;;4.82;1.23;;;;;;;;;;5093577;28;20040;-46
2024/03/21 12:36:42;;;;;;;5.10;0.98;;;;;;;;;;5093709;28;20039;-47
2024/03/21 12:39:09;;;;;;;4.57;1.10;;;;;;;;;;5092819;28;20491;-48
2024/03/21 12:41:38;;;;;;;5.32;0.93;;;;;;;;;;5092749;28;20115;-49
2024/03/21 12:44:06;;;;;;;3.63;1.05;;;;;;;;;;5092178;28;20036;-46
2024/03/21 12:46:33;;;;;;;7.30;0.88;;;;;;;;;;5093067;28;20144;-48
2024/03/21 12:49:00;;;;;;;4.85;1.20;;;;;;;;;;5093160;28;20033;-46
2024/03/21 12:51:27;;;;;;;4.93;1.17;;;;;;;;;;5075080;28;20550;-46
2024/03/21 12:53:54;;;;;;;5.20;1.27;;;;;;;;;;5093356;28;20024;-46
2024/03/21 12:56:21;;;;;;;5.18;1.17;;;;;;;;;;5093675;28;20028;-45
2024/03/21 12:58:48;;;;;;;5.68;1.33;;;;;;;;;;5093686;28;20028;-48
2024/03/21 13:01:16;;;;;;;4.75;1.30;;;;;;;;;;5093658;28;20438;-46
2024/03/21 13:03:43;;;;;;;7.85;1.65;;;;;;;;;;5093411;28;20024;-45
2024/03/21 13:06:10;;;;;;;4.22;1.13;;;;;;;;;;5093510;28;20027;-46
2024/03/21 13:08:38;;;;;;;2.33;0.95;;;;;;;;;;5093329;28;20036;-46
2024/03/21 13:11:05;;;;;;;6.07;1.30;;;;;;;;;;5093335;28;20028;-46
2024/03/21 13:13:31;;;;;;;6.95;1.00;;;;;;;;;;5093306;28;20482;-46
2024/03/21 13:15:58;;;;;;;4.78;1.17;;;;;;;;;;5093197;28;20482;-46
2024/03/21 13:18:25;;;;;;;4.47;1.17;;;;;;;;;;5093189;28;20032;-46
2024/03/21 13:20:52;;;;;;;2.35;0.93;;;;;;;;;;5093072;28;20434;-46
2024/03/21 13:23:19;;;;;;;3.70;0.80;;;;;;;;;;5093135;28;20028;-47
2024/03/21 13:25:46;;;;;;;5.72;1.00;;;;;;;;;;5092975;28;20542;-47
2024/03/21 13:28:13;;;;;;;4.20;1.10;;;;;;;;;;5092950;28;20063;-46
2024/03/21 13:30:40;;;;;;;5.13;0.93;;;;;;;;;;5093032;28;20048;-47
2024/03/21 13:33:07;;;;;;;6.22;1.30;;;;;;;;;;5092925;28;20038;-47
2024/03/21 13:35:34;;;;;;;4.50;1.20;;;;;;;;;;5092823;28;20028;-47
2024/03/21 13:38:02;;;;;;;4.40;1.52;;;;;;;;;;5092395;28;20097;-46
2024/03/21 13:40:31;;;;;;;5.22;1.25;;;;;;;;;;5092472;28;20082;-46
2024/03/21 13:42:58;;;;;;;3.67;0.82;;;;;;;;;;5092627;28;20525;-46
2024/03/21 13:45:25;;;;;;;4.40;1.05;;;;;;;;;;5092600;28;20028;-47
2024/03/21 13:47:53;;;;;;;2.25;0.90;;;;;;;;;;5092311;28;20413;-46
2024/03/21 13:50:20;;;;;;;2.70;0.93;;;;;;;;;;5092404;28;20431;-46
2024/03/21 13:52:47;;;;;;;4.07;1.10;;;;;;;;;;5092608;28;20398;-46
2024/03/21 13:55:14;;;;;;;6.43;1.10;;;;;;;;;;5092374;28;20020;-48
2024/03/21 13:57:41;;;;;;;2.70;0.80;;;;;;;;;;5092501;28;20032;-46
2024/03/21 14:00:12;;;;;;;3.85;1.15;;;;;;;;;;5092416;28;20028;-45
2024/03/21 14:02:39;;;;;;;4.22;0.95;;;;;;;;;;5092238;28;20489;-46
2024/03/21 14:05:09;;;;;;;2.72;1.05;;;;;;;;;;5092313;28;20031;-47
2024/03/21 14:07:37;;;;;;;2.10;0.93;;;;;;;;;;5092210;28;20434;-45
2024/03/21 14:10:04;;;;;;;2.83;1.00;;;;;;;;;;5092320;28;20024;-46
2024/03/21 14:12:32;;;;;;;4.63;1.05;;;;;;;;;;5092063;28;20032;-46
2024/03/21 14:15:00;;;;;;;4.07;1.00;;;;;;;;;;5092121;28;20165;-46
2024/03/21 14:17:34;;;;;;;5.43;0.93;;;;;;;;;;5092162;28;20030;-47
2024/03/21 14:20:08;;;;;;;3.53;1.20;;;;;;;;;;5092025;28;20036;-46
2024/03/21 14:22:41;;;;;;;3.63;0.93;;;;;;;;;;5092089;28;20037;-46
2024/03/21 14:25:11;;;;;;;2.47;0.90;;;;;;;;;;5073567;28;20402;-47
2024/03/21 14:27:38;;;;;;;4.30;0.90;;;;;;;;;;5091903;28;20032;-46
2024/03/21 14:30:06;;;;;;;2.95;1.02;;;;;;;;;;5091968;28;20031;-49
2024/03/21 14:32:44;;;;;;;2.20;0.80;;;;;;;;;;5091948;28;20024;-46
2024/03/21 14:35:11;;;;;;;3.25;1.15;;;;;;;;;;5091636;28;20457;-47
2024/03/21 14:37:40;;;;;;;2.15;0.80;;;;;;;;;;5091849;28;20035;-48
2024/03/21 14:40:08;;;;;;;2.53;0.90;;;;;;;;;;5091694;28;20035;-47
2024/03/21 14:42:42;;;;;;;2.28;0.80;;;;;;;;;;5091803;28;20073;-48
2024/03/21 14:45:09;;;;;;;4.90;0.75;;;;;;;;;;5091692;28;20020;-46
2024/03/21 14:47:36;;;;;;;5.00;1.00;;;;;;;;;;5091519;28;20417;-45
2024/03/21 14:50:04;;;;;;;3.17;0.82;;;;;;;;;;5091525;28;20409;-46
2024/03/21 14:52:31;;;;;;;2.17;0.98;;;;;;;;;;5091884;28;20028;-45
2024/03/21 14:54:58;;;;;;;4.45;1.20;;;;;;;;;;5091457;28;20097;-45